Terminal Aerodrome Forecast
Issued by NWS

Home | Current Version | Previous Version | Text Only | Print | Product List | Glossary On
Versions: 1 2 3 4 5 6 7 8 9 10 11 12 13 14 15 16 17 18
000
FTAK31 PANC 240527
TAFADL
TAF
PADL 240527Z 2406/2506 VRB03KT 3SM -RA BR BKN007 OVC020
     FM241500 02006KT 6SM -RA OVC005=

USA.gov is the U.S. government's official web portal to all federal, state and local government web resources and services.